createdAt,value
2024-02-29T00:01:15.852Z,20.27
2024-02-29T00:04:17.936Z,22.23
2024-02-29T00:07:19.748Z,19.08
2024-02-29T00:10:22.115Z,19.33
2024-02-29T00:13:24.419Z,21.80
2024-02-29T00:16:26.217Z,20.73
2024-02-29T00:19:29.080Z,22.27
2024-02-29T00:22:30.927Z,21.52
2024-02-29T00:25:32.716Z,21.02
2024-02-29T00:28:34.546Z,21.92
2024-02-29T00:31:36.479Z,22.33
2024-02-29T00:34:38.266Z,22.37
2024-02-29T00:37:40.124Z,22.17
2024-02-29T00:40:41.905Z,22.23
2024-02-29T00:43:43.747Z,23.05
2024-02-29T00:46:45.580Z,21.50
2024-02-29T00:49:47.360Z,22.67
2024-02-29T00:52:49.083Z,23.00
2024-02-29T00:55:51.120Z,24.02
2024-02-29T00:58:52.904Z,22.30
2024-02-29T01:01:56.648Z,23.20
2024-02-29T01:04:58.788Z,25.00
2024-02-29T01:08:00.567Z,22.83
2024-02-29T01:11:04.792Z,21.38
2024-02-29T01:14:06.729Z,21.35
2024-02-29T01:17:08.485Z,21.43
2024-02-29T01:20:10.861Z,22.37
2024-02-29T01:23:12.596Z,20.35
2024-02-29T01:26:14.676Z,20.42
2024-02-29T01:29:16.483Z,20.42
2024-02-29T01:32:22.792Z,20.00
2024-02-29T01:35:29.000Z,20.53
2024-02-29T01:38:33.133Z,21.38
2024-02-29T01:41:34.897Z,22.80
2024-02-29T01:44:48.295Z,20.58
2024-02-29T01:47:50.069Z,20.17
2024-02-29T01:50:52.099Z,20.53
2024-02-29T01:53:53.885Z,20.17
2024-02-29T01:56:56.733Z,20.63
2024-02-29T01:59:58.889Z,18.45
2024-02-29T02:03:00.680Z,18.73
2024-02-29T02:06:02.492Z,18.53
2024-02-29T02:09:04.985Z,19.58
2024-02-29T02:12:07.217Z,18.02
2024-02-29T02:15:09.562Z,18.08
2024-02-29T02:18:11.377Z,17.27
2024-02-29T02:21:13.178Z,17.83
2024-02-29T02:24:15.014Z,18.90
2024-02-29T02:27:16.825Z,16.98
2024-02-29T02:30:18.584Z,16.67
2024-02-29T02:33:24.205Z,17.10
2024-02-29T02:36:26.021Z,17.53
2024-02-29T02:39:27.912Z,16.58
2024-02-29T02:42:29.714Z,17.23
2024-02-29T02:45:31.868Z,16.80
2024-02-29T02:48:33.686Z,17.27
2024-02-29T02:51:35.453Z,19.30
2024-02-29T02:54:37.845Z,17.88
2024-02-29T02:57:39.680Z,18.23
2024-02-29T03:00:41.497Z,17.92
2024-02-29T03:03:43.309Z,18.30
2024-02-29T03:06:45.104Z,18.93
2024-02-29T03:09:47.501Z,19.67
2024-02-29T03:12:50.326Z,20.83
2024-02-29T03:15:52.144Z,20.67
2024-02-29T03:18:54.147Z,21.20
2024-02-29T03:21:55.952Z,21.43
2024-02-29T03:24:58.369Z,21.88
2024-02-29T03:28:00.193Z,21.38
2024-02-29T03:31:02.107Z,21.63
2024-02-29T03:34:04.214Z,20.67
2024-02-29T03:37:06.213Z,21.50
2024-02-29T03:40:08.945Z,20.85
2024-02-29T03:43:11.953Z,22.17
2024-02-29T03:46:13.844Z,20.80
2024-02-29T03:49:15.715Z,21.20
2024-02-29T03:52:17.641Z,20.73
2024-02-29T03:55:19.462Z,20.27
2024-02-29T03:58:21.382Z,21.13
2024-02-29T04:01:23.489Z,22.35
2024-02-29T04:04:25.368Z,21.60
2024-02-29T04:07:27.108Z,21.07
2024-02-29T04:10:29.080Z,21.00
2024-02-29T04:13:31.855Z,20.83
2024-02-29T04:16:37.876Z,21.10
2024-02-29T04:19:39.660Z,20.77
2024-02-29T04:22:41.604Z,21.17
2024-02-29T04:25:46.451Z,20.48
2024-02-29T04:28:49.486Z,20.83
2024-02-29T04:31:51.256Z,20.92
2024-02-29T04:34:53.949Z,20.00
2024-02-29T04:37:55.732Z,21.10
2024-02-29T04:40:57.493Z,21.15
2024-02-29T04:43:59.241Z,21.92
2024-02-29T04:47:01.094Z,21.60
2024-02-29T04:50:04.413Z,20.67
2024-02-29T04:53:06.302Z,20.37
2024-02-29T04:56:08.144Z,21.48
2024-02-29T04:59:11.258Z,20.80
2024-02-29T05:02:13.176Z,20.40
2024-02-29T05:05:15.446Z,22.83
2024-02-29T05:08:17.239Z,21.50
2024-02-29T05:11:19.110Z,20.65
2024-02-29T05:14:21.261Z,19.85
2024-02-29T05:17:23.131Z,20.42
2024-02-29T05:20:24.971Z,19.27
2024-02-29T05:23:26.748Z,20.67
2024-02-29T05:26:28.489Z,18.90
2024-02-29T05:29:30.266Z,19.88
2024-02-29T05:32:32.125Z,21.70
2024-02-29T05:35:34.430Z,21.23
2024-02-29T05:38:36.189Z,21.70
2024-02-29T05:41:38.168Z,21.00
2024-02-29T05:44:40.639Z,20.05
2024-02-29T05:47:42.650Z,20.48
2024-02-29T05:50:44.475Z,20.03
2024-02-29T05:53:46.362Z,19.83
2024-02-29T05:56:48.187Z,30.63
2024-02-29T05:59:49.955Z,29.83
2024-02-29T06:02:53.108Z,23.30
2024-02-29T06:05:55.225Z,20.80
2024-02-29T06:08:56.988Z,19.53
2024-02-29T06:11:58.757Z,19.27
2024-02-29T06:15:05.240Z,18.73
2024-02-29T06:18:08.481Z,18.27
2024-02-29T06:21:10.329Z,18.13
2024-02-29T06:24:12.127Z,20.13
2024-02-29T06:27:13.883Z,19.10
2024-02-29T06:30:18.012Z,17.45
2024-02-29T06:33:22.683Z,18.40
2024-02-29T06:36:24.769Z,18.90
2024-02-29T06:39:26.628Z,16.33
2024-02-29T06:42:28.430Z,17.40
2024-02-29T06:45:30.223Z,17.75
2024-02-29T06:48:32.317Z,17.65
2024-02-29T06:51:34.806Z,17.50
2024-02-29T06:54:37.152Z,17.30
2024-02-29T06:57:39.135Z,23.20
2024-02-29T07:00:41.830Z,18.88
2024-02-29T07:03:43.710Z,17.80
2024-02-29T07:06:45.581Z,18.23
2024-02-29T07:09:47.893Z,17.90
2024-02-29T07:12:50.482Z,17.92
2024-02-29T07:15:52.656Z,17.92
2024-02-29T07:18:54.534Z,16.90
2024-02-29T07:21:56.375Z,17.40
2024-02-29T07:24:58.380Z,17.80
2024-02-29T07:28:00.305Z,16.38
2024-02-29T07:31:03.023Z,17.48
2024-02-29T07:34:05.113Z,17.27
2024-02-29T07:37:07.295Z,17.73
2024-02-29T07:40:15.227Z,18.90
2024-02-29T07:43:23.441Z,17.40
2024-02-29T07:46:25.521Z,18.05
2024-02-29T07:49:27.961Z,18.38
2024-02-29T07:52:29.835Z,18.53
2024-02-29T07:55:34.579Z,18.70
2024-02-29T07:58:36.399Z,16.92
2024-02-29T08:01:44.092Z,17.13
2024-02-29T08:04:48.989Z,19.73
2024-02-29T08:07:50.818Z,19.73
2024-02-29T08:10:54.744Z,17.70
2024-02-29T08:13:57.306Z,17.70
2024-02-29T08:16:59.731Z,17.90
2024-02-29T08:20:03.815Z,18.08
2024-02-29T08:23:05.723Z,17.87
2024-02-29T08:26:09.073Z,17.20
2024-02-29T08:29:14.668Z,17.05
2024-02-29T08:32:16.779Z,16.35
2024-02-29T08:35:19.871Z,17.67
2024-02-29T08:38:21.920Z,17.47
2024-02-29T08:41:23.724Z,17.77
2024-02-29T08:44:25.454Z,16.13
2024-02-29T08:47:27.259Z,16.30
2024-02-29T08:50:29.084Z,15.82
2024-02-29T08:53:30.858Z,16.03
2024-02-29T08:56:32.653Z,16.60
2024-02-29T08:59:34.843Z,16.25
2024-02-29T09:02:36.731Z,16.60
2024-02-29T09:05:38.503Z,14.05
2024-02-29T09:08:41.072Z,13.80
2024-02-29T09:11:42.884Z,14.57
2024-02-29T09:14:46.224Z,13.23
2024-02-29T09:17:53.822Z,12.23
2024-02-29T09:20:58.449Z,12.80
2024-02-29T09:24:03.762Z,13.07
2024-02-29T09:27:06.029Z,12.20
2024-02-29T09:30:08.085Z,12.68
2024-02-29T09:33:09.843Z,11.82
2024-02-29T09:36:12.453Z,11.55
2024-02-29T09:39:14.360Z,12.40
2024-02-29T09:42:17.213Z,11.80
2024-02-29T09:45:25.419Z,11.60
2024-02-29T09:48:28.750Z,12.20
2024-02-29T09:51:31.653Z,11.95
2024-02-29T09:54:35.577Z,12.67
2024-02-29T09:57:37.783Z,12.13
2024-02-29T10:00:39.680Z,13.43
2024-02-29T10:03:43.487Z,13.75
2024-02-29T10:06:45.968Z,13.48
2024-02-29T10:09:49.406Z,13.33
2024-02-29T10:12:58.235Z,13.63
2024-02-29T10:16:00.215Z,12.82
2024-02-29T10:19:03.768Z,12.50
2024-02-29T10:22:05.671Z,13.30
2024-02-29T10:25:16.593Z,13.70
2024-02-29T10:28:20.478Z,12.73
2024-02-29T10:31:22.298Z,14.10
2024-02-29T10:34:24.618Z,14.25
2024-02-29T10:37:26.494Z,13.30
2024-02-29T10:40:28.391Z,13.13
2024-02-29T10:43:34.802Z,12.30
2024-02-29T10:46:42.952Z,12.48
2024-02-29T10:49:53.557Z,11.18
2024-02-29T10:53:22.469Z,12.40
2024-02-29T10:56:28.692Z,11.67
2024-02-29T10:59:31.739Z,11.97
2024-02-29T11:02:34.003Z,11.73
2024-02-29T11:05:38.158Z,12.15
2024-02-29T11:08:41.101Z,11.85
2024-02-29T11:11:47.985Z,12.07
2024-02-29T11:14:50.121Z,12.37
2024-02-29T11:17:51.933Z,12.38
2024-02-29T11:21:06.844Z,12.50
2024-02-29T11:24:10.897Z,12.48
2024-02-29T11:27:13.484Z,12.47
2024-02-29T11:30:19.980Z,12.77
2024-02-29T11:33:21.875Z,12.10
2024-02-29T11:36:24.813Z,12.40
2024-02-29T11:39:26.613Z,12.13
2024-02-29T11:42:28.515Z,12.17
2024-02-29T11:45:30.458Z,12.37
2024-02-29T11:48:32.249Z,12.73
2024-02-29T11:51:34.073Z,13.00
2024-02-29T11:54:36.000Z,11.82
2024-02-29T11:57:37.827Z,12.47
2024-02-29T12:00:39.778Z,12.47
2024-02-29T12:09:09.724Z,12.40
2024-02-29T12:12:18.929Z,12.70
2024-02-29T12:15:45.053Z,11.97
2024-02-29T12:18:53.883Z,12.37
2024-02-29T12:21:56.059Z,12.63
2024-02-29T12:24:58.667Z,12.50
2024-02-29T12:28:00.826Z,12.52
2024-02-29T12:31:02.670Z,13.60
2024-02-29T12:34:04.688Z,12.30
2024-02-29T12:37:20.395Z,12.60
2024-02-29T12:40:22.383Z,12.77
2024-02-29T12:43:24.258Z,13.13
2024-02-29T12:46:27.637Z,12.23
2024-02-29T12:49:29.646Z,14.90
2024-02-29T12:52:31.709Z,13.50
2024-02-29T12:55:33.654Z,12.50
2024-02-29T12:58:35.599Z,11.85
2024-02-29T13:01:38.989Z,12.80
2024-02-29T13:04:41.467Z,12.73
2024-02-29T13:07:43.886Z,12.48
2024-02-29T13:10:45.646Z,11.98
2024-02-29T13:13:47.679Z,12.35
2024-02-29T13:16:49.824Z,12.00
2024-02-29T13:19:51.543Z,12.53
2024-02-29T13:22:53.285Z,11.55
2024-02-29T13:25:55.508Z,11.10
2024-02-29T13:28:57.469Z,11.30
2024-02-29T13:32:01.207Z,11.50
2024-02-29T13:35:05.284Z,10.87
2024-02-29T13:38:07.147Z,11.15
2024-02-29T13:41:09.126Z,12.25
2024-02-29T13:44:10.971Z,10.68
2024-02-29T13:47:16.429Z,13.50
2024-02-29T13:50:20.540Z,14.33
2024-02-29T13:53:22.451Z,14.32
2024-02-29T13:56:26.743Z,10.80
2024-02-29T13:59:31.622Z,11.40
2024-02-29T14:02:34.171Z,10.73
2024-02-29T14:05:36.257Z,10.37
2024-02-29T14:08:38.086Z,10.55
2024-02-29T14:11:40.727Z,10.82
2024-02-29T14:14:42.768Z,10.30
2024-02-29T14:17:44.632Z,10.60
2024-02-29T14:20:46.412Z,10.27
2024-02-29T14:23:48.190Z,10.30
2024-02-29T14:26:52.668Z,10.68
2024-02-29T14:29:54.522Z,9.88
2024-02-29T14:32:58.838Z,11.13
2024-02-29T14:36:01.016Z,10.40
2024-02-29T14:39:03.396Z,10.50
2024-02-29T14:42:24.195Z,12.20
2024-02-29T14:45:26.390Z,11.52
2024-02-29T14:48:28.307Z,10.33
2024-02-29T14:51:30.256Z,9.97
2024-02-29T14:54:32.332Z,9.45
2024-02-29T14:57:34.788Z,10.60
2024-02-29T15:00:36.574Z,11.07
2024-02-29T15:03:38.490Z,10.50
2024-02-29T15:06:40.994Z,9.90
2024-02-29T15:09:42.991Z,10.75
2024-02-29T15:12:51.810Z,11.00
2024-02-29T15:16:20.905Z,10.55
2024-02-29T15:19:27.030Z,11.00
2024-02-29T15:22:29.192Z,11.00
2024-02-29T15:25:30.998Z,11.30
2024-02-29T15:28:33.632Z,11.20
2024-02-29T15:31:37.110Z,10.80
2024-02-29T15:34:38.905Z,12.53
2024-02-29T15:37:40.703Z,12.07
2024-02-29T15:40:44.359Z,14.43
2024-02-29T15:43:46.914Z,19.02
2024-02-29T15:46:51.364Z,22.85
2024-02-29T15:49:53.242Z,18.43
2024-02-29T15:52:56.265Z,19.33
2024-02-29T15:56:00.183Z,17.48
2024-02-29T15:59:03.154Z,15.20
2024-02-29T16:02:04.963Z,12.68
2024-02-29T16:05:07.200Z,12.47
2024-02-29T16:08:09.090Z,13.43
2024-02-29T16:11:11.636Z,11.35
2024-02-29T16:14:13.865Z,11.57
2024-02-29T16:17:15.657Z,13.02
2024-02-29T16:20:17.685Z,13.27
2024-02-29T16:23:20.249Z,13.53
2024-02-29T16:26:22.316Z,15.35
2024-02-29T16:29:24.073Z,16.90
2024-02-29T16:32:26.193Z,24.35
2024-02-29T16:35:28.176Z,33.90
2024-02-29T16:38:30.233Z,21.00
2024-02-29T16:41:32.359Z,15.85
2024-02-29T16:44:34.325Z,15.20
2024-02-29T16:47:36.256Z,14.07
2024-02-29T16:51:05.965Z,14.80
2024-02-29T16:54:07.805Z,14.17
2024-02-29T16:57:11.958Z,14.60
2024-02-29T17:00:19.231Z,15.98
2024-02-29T17:03:21.635Z,16.58
2024-02-29T17:06:23.884Z,15.53
2024-02-29T17:09:27.731Z,14.50
2024-02-29T17:12:31.900Z,16.65
2024-02-29T17:15:36.573Z,16.23
2024-02-29T17:18:39.921Z,17.08
2024-02-29T17:21:43.009Z,16.07
2024-02-29T17:24:46.682Z,14.97
2024-02-29T17:27:48.616Z,15.60
2024-02-29T17:30:50.644Z,18.58
2024-02-29T17:33:53.129Z,18.77
2024-02-29T17:36:54.939Z,20.07
2024-02-29T17:39:57.159Z,17.53
2024-02-29T17:42:59.334Z,16.60
2024-02-29T17:46:01.430Z,19.65
2024-02-29T17:49:03.731Z,20.45
2024-02-29T17:52:07.558Z,21.37
2024-02-29T17:55:09.690Z,17.90
2024-02-29T17:58:12.012Z,15.68
2024-02-29T18:01:13.930Z,14.45
2024-02-29T18:04:15.753Z,14.27
2024-02-29T18:07:17.682Z,13.67
2024-02-29T18:10:19.811Z,12.93
2024-02-29T18:13:22.014Z,13.05
2024-02-29T18:16:24.182Z,14.30
2024-02-29T18:19:27.227Z,21.98
2024-02-29T18:22:29.515Z,33.63
2024-02-29T18:25:31.460Z,31.07
2024-02-29T18:28:34.824Z,28.83
2024-02-29T18:31:36.904Z,27.20
2024-02-29T18:34:39.139Z,24.58
2024-02-29T18:37:41.496Z,17.30
2024-02-29T18:40:44.809Z,13.30
2024-02-29T18:43:47.377Z,12.18
2024-02-29T18:46:49.290Z,14.70
2024-02-29T18:49:51.317Z,27.30
2024-02-29T18:52:53.461Z,30.03
2024-02-29T18:55:55.595Z,18.30
2024-02-29T18:58:57.967Z,14.75
2024-02-29T19:02:01.575Z,13.32
2024-02-29T19:05:04.304Z,15.10
2024-02-29T19:08:07.026Z,15.00
2024-02-29T19:11:09.099Z,16.90
2024-02-29T19:14:12.534Z,16.80
2024-02-29T19:17:14.374Z,17.70
2024-02-29T19:20:16.633Z,15.73
2024-02-29T19:23:18.534Z,15.37
2024-02-29T19:26:21.563Z,17.47
2024-02-29T19:29:23.339Z,17.08
2024-02-29T19:32:27.160Z,20.20
2024-02-29T19:35:29.317Z,17.38
2024-02-29T19:38:31.134Z,16.47
2024-02-29T19:41:33.310Z,16.60
2024-02-29T19:44:35.361Z,16.13
2024-02-29T19:47:41.670Z,16.08
2024-02-29T19:50:43.449Z,16.10
2024-02-29T19:53:45.533Z,15.40
2024-02-29T19:56:47.940Z,15.97
2024-02-29T19:59:49.928Z,16.20
2024-02-29T20:02:51.775Z,16.73
2024-02-29T20:05:53.887Z,16.63
2024-02-29T20:08:56.094Z,16.80
2024-02-29T20:11:58.185Z,16.00
2024-02-29T20:15:01.505Z,17.20
2024-02-29T20:18:03.755Z,16.85
2024-02-29T20:21:05.981Z,20.73
2024-02-29T20:24:08.798Z,18.73
2024-02-29T20:27:11.168Z,17.67
2024-02-29T20:30:15.787Z,16.92
2024-02-29T20:33:17.681Z,17.55
2024-02-29T20:36:19.479Z,17.42
2024-02-29T20:39:21.299Z,17.60
2024-02-29T20:42:23.097Z,17.17
2024-02-29T20:45:25.892Z,16.67
2024-02-29T20:48:27.663Z,17.83
2024-02-29T20:51:29.531Z,15.95
2024-02-29T20:54:31.846Z,16.40
2024-02-29T20:57:33.807Z,16.93
2024-02-29T21:00:36.253Z,16.90
2024-02-29T21:03:38.037Z,16.70
2024-02-29T21:06:39.861Z,16.83
2024-02-29T21:09:41.752Z,16.90
2024-02-29T21:12:43.837Z,16.10
2024-02-29T21:15:45.684Z,15.80
2024-02-29T21:18:47.451Z,15.88
2024-02-29T21:21:49.312Z,17.05
2024-02-29T21:24:51.134Z,15.53
2024-02-29T21:27:52.986Z,16.60
2024-02-29T21:30:56.251Z,17.23
2024-02-29T21:33:58.450Z,17.95
2024-02-29T21:37:00.556Z,17.52
2024-02-29T21:40:02.793Z,16.77
2024-02-29T21:43:05.013Z,17.07
2024-02-29T21:46:08.689Z,16.20
2024-02-29T21:49:10.500Z,17.25
2024-02-29T21:52:13.001Z,17.15
2024-02-29T21:55:16.483Z,16.97
2024-02-29T21:58:18.931Z,17.73
2024-02-29T22:01:20.860Z,17.52
2024-02-29T22:04:23.180Z,17.23
2024-02-29T22:07:25.128Z,17.85
2024-02-29T22:10:26.998Z,17.90
2024-02-29T22:13:29.002Z,18.07
2024-02-29T22:16:30.886Z,19.05
2024-02-29T22:19:33.326Z,19.48
2024-02-29T22:22:35.802Z,19.83
2024-02-29T22:25:37.626Z,19.33
2024-02-29T22:28:39.370Z,20.70
2024-02-29T22:31:42.279Z,20.95
2024-02-29T22:34:44.185Z,21.23
2024-02-29T22:37:46.048Z,20.55
2024-02-29T22:40:47.823Z,21.17
2024-02-29T22:43:49.859Z,22.47
2024-02-29T22:46:52.559Z,21.67
2024-02-29T22:49:54.375Z,21.73
2024-02-29T22:52:57.928Z,20.35
2024-02-29T22:55:59.953Z,20.43
2024-02-29T22:59:01.826Z,20.80
2024-02-29T23:02:05.169Z,21.02
2024-02-29T23:05:07.337Z,20.15
2024-02-29T23:08:11.363Z,20.52
2024-02-29T23:11:13.492Z,21.13
2024-02-29T23:14:15.441Z,19.83
2024-02-29T23:17:17.525Z,20.55
2024-02-29T23:20:19.470Z,20.58
2024-02-29T23:23:21.268Z,20.77
2024-02-29T23:26:23.032Z,20.03
2024-02-29T23:29:24.887Z,18.10
2024-02-29T23:32:26.623Z,19.67
2024-02-29T23:35:28.381Z,18.80
2024-02-29T23:38:30.110Z,18.83
2024-02-29T23:41:31.930Z,19.03
2024-02-29T23:44:34.207Z,18.57
2024-02-29T23:47:36.010Z,19.40
2024-02-29T23:50:38.305Z,18.65
2024-02-29T23:53:40.109Z,18.35
2024-02-29T23:56:41.894Z,18.03
2024-02-29T23:59:43.656Z,18.90
